createdAt,value
2023-04-18T00:01:53.986Z,41.20
2023-04-18T00:04:22.212Z,62.13
2023-04-18T00:06:50.102Z,53.77
2023-04-18T00:09:19.465Z,52.57
2023-04-18T00:11:47.316Z,57.37
2023-04-18T00:14:15.354Z,54.13
2023-04-18T00:16:43.479Z,59.77
2023-04-18T00:19:11.406Z,56.87
2023-04-18T00:21:44.732Z,55.93
2023-04-18T00:24:12.953Z,58.27
2023-04-18T00:26:42.312Z,55.77
2023-04-18T00:29:10.184Z,58.57
2023-04-18T00:31:38.109Z,52.70
2023-04-18T00:34:06.111Z,55.50
2023-04-18T00:36:33.912Z,56.27
2023-04-18T00:39:01.792Z,59.20
2023-04-18T00:41:31.306Z,59.70
2023-04-18T00:44:00.783Z,54.40
2023-04-18T00:46:28.923Z,54.77
2023-04-18T00:48:56.903Z,57.03
2023-04-18T00:51:25.558Z,54.23
2023-04-18T00:53:53.851Z,48.40
2023-04-18T00:56:23.649Z,54.47
2023-04-18T00:58:52.038Z,55.20
2023-04-18T01:01:21.350Z,53.40
2023-04-18T01:03:49.278Z,56.97
2023-04-18T01:06:17.591Z,54.87
2023-04-18T01:08:45.878Z,53.63
2023-04-18T01:11:13.789Z,55.57
2023-04-18T01:13:41.611Z,57.27
2023-04-18T01:16:09.656Z,55.03
2023-04-18T01:18:40.124Z,57.93
2023-04-18T01:21:09.831Z,53.63
2023-04-18T01:23:37.952Z,59.07
2023-04-18T01:26:08.516Z,50.90
2023-04-18T01:28:38.268Z,52.43
2023-04-18T01:31:06.358Z,54.03
2023-04-18T01:33:38.739Z,55.20
2023-04-18T01:36:06.931Z,50.13
2023-04-18T01:38:34.830Z,52.07
2023-04-18T01:41:03.362Z,52.63
2023-04-18T01:43:32.500Z,55.03
2023-04-18T01:46:00.360Z,51.47
2023-04-18T01:48:29.257Z,52.30
2023-04-18T01:50:57.136Z,56.67
2023-04-18T01:53:25.496Z,52.67
2023-04-18T01:55:53.550Z,52.87
2023-04-18T01:58:23.615Z,51.00
2023-04-18T02:00:54.605Z,54.93
2023-04-18T02:03:22.803Z,51.10
2023-04-18T02:05:50.830Z,52.07
2023-04-18T02:08:18.784Z,50.70
2023-04-18T02:10:46.754Z,51.17
2023-04-18T02:13:15.474Z,47.83
2023-04-18T02:15:45.528Z,50.20
2023-04-18T02:18:17.408Z,51.50
2023-04-18T02:20:45.515Z,54.33
2023-04-18T02:23:13.392Z,51.77
2023-04-18T02:25:41.444Z,53.93
2023-04-18T02:28:10.571Z,55.93
2023-04-18T02:30:38.504Z,50.97
2023-04-18T02:33:06.426Z,48.03
2023-04-18T02:35:36.178Z,50.70
2023-04-18T02:38:04.100Z,44.43
2023-04-18T02:40:31.917Z,47.27
2023-04-18T02:43:02.049Z,47.13
2023-04-18T02:45:30.540Z,45.43
2023-04-18T02:48:00.897Z,46.33
2023-04-18T02:50:29.429Z,45.17
2023-04-18T02:52:59.968Z,45.07
2023-04-18T02:55:38.429Z,44.83
2023-04-18T02:58:06.521Z,45.90
2023-04-18T03:01:11.566Z,43.97
2023-04-18T03:03:59.675Z,46.07
2023-04-18T03:06:37.992Z,41.07
2023-04-18T03:09:08.730Z,43.23
2023-04-18T03:11:40.672Z,43.67
2023-04-18T03:14:09.339Z,42.60
2023-04-18T03:16:51.749Z,41.50
2023-04-18T03:19:24.048Z,40.63
2023-04-18T03:21:54.271Z,38.20
2023-04-18T03:24:24.590Z,39.30
2023-04-18T03:26:54.878Z,44.60
2023-04-18T03:29:26.245Z,38.07
2023-04-18T03:31:54.119Z,42.50
2023-04-18T03:34:21.975Z,37.67
2023-04-18T03:36:50.524Z,38.73
2023-04-18T03:39:18.463Z,37.50
2023-04-18T03:41:47.975Z,36.03
2023-04-18T03:44:16.578Z,37.57
2023-04-18T03:46:45.487Z,33.67
2023-04-18T03:49:13.407Z,35.43
2023-04-18T03:51:47.569Z,30.27
2023-04-18T03:54:15.765Z,31.43
2023-04-18T03:56:43.826Z,32.80
2023-04-18T03:59:13.355Z,28.63
2023-04-18T04:01:44.417Z,32.50
2023-04-18T04:04:15.247Z,26.60
2023-04-18T04:06:44.084Z,29.13
2023-04-18T04:09:11.891Z,31.67
2023-04-18T04:11:40.690Z,26.43
2023-04-18T04:14:13.374Z,30.37
2023-04-18T04:16:45.873Z,22.80
2023-04-18T04:19:16.722Z,29.23
2023-04-18T04:21:53.668Z,28.80
2023-04-18T04:24:23.161Z,26.63
2023-04-18T04:26:52.286Z,30.70
2023-04-18T04:29:26.166Z,30.20
2023-04-18T04:31:54.349Z,31.83
2023-04-18T04:34:30.964Z,29.07
2023-04-18T04:37:00.744Z,29.63
2023-04-18T04:39:30.267Z,28.00
2023-04-18T04:42:15.393Z,27.23
2023-04-18T04:44:55.476Z,28.13
2023-04-18T04:47:24.752Z,30.40
2023-04-18T04:49:52.548Z,27.37
2023-04-18T04:52:20.492Z,29.70
2023-04-18T04:54:48.571Z,25.80
2023-04-18T04:57:19.306Z,25.27
2023-04-18T04:59:47.339Z,24.13
2023-04-18T05:02:16.645Z,22.73
2023-04-18T05:04:44.553Z,23.10
2023-04-18T05:07:12.570Z,27.60
2023-04-18T05:09:40.459Z,21.10
2023-04-18T05:12:08.861Z,21.77
2023-04-18T05:14:36.724Z,28.00
2023-04-18T05:17:05.030Z,25.73
2023-04-18T05:19:34.330Z,23.20
2023-04-18T05:22:02.616Z,21.97
2023-04-18T05:24:32.432Z,21.83
2023-04-18T05:27:01.143Z,24.43
2023-04-18T05:29:28.974Z,24.00
2023-04-18T05:31:56.857Z,25.40
2023-04-18T05:34:24.744Z,27.53
2023-04-18T05:36:54.119Z,20.53
2023-04-18T05:39:21.950Z,20.40
2023-04-18T05:41:50.010Z,22.17
2023-04-18T05:44:18.366Z,22.57
2023-04-18T05:46:46.646Z,21.73
2023-04-18T05:49:14.589Z,19.93
2023-04-18T05:51:42.454Z,20.47
2023-04-18T05:54:11.699Z,17.47
2023-04-18T05:56:40.063Z,18.93
2023-04-18T05:59:07.875Z,18.63
2023-04-18T06:01:35.774Z,21.33
2023-04-18T06:04:03.732Z,19.63
2023-04-18T06:06:31.876Z,18.87
2023-04-18T06:08:59.689Z,19.93
2023-04-18T06:11:28.904Z,21.57
2023-04-18T06:13:56.807Z,21.67
2023-04-18T06:16:24.721Z,21.37
2023-04-18T06:18:52.648Z,18.77
2023-04-18T06:21:21.736Z,20.33
2023-04-18T06:23:49.662Z,16.23
2023-04-18T06:26:17.964Z,21.57
2023-04-18T06:28:47.175Z,26.20
2023-04-18T06:31:15.041Z,22.40
2023-04-18T06:33:43.040Z,21.37
2023-04-18T06:36:11.116Z,17.70
2023-04-18T06:38:39.131Z,18.67
2023-04-18T06:41:06.972Z,13.23
2023-04-18T06:43:35.788Z,20.10
2023-04-18T06:46:06.009Z,17.80
2023-04-18T06:48:34.136Z,17.00
2023-04-18T06:51:01.967Z,16.77
2023-04-18T06:53:29.938Z,17.87
2023-04-18T06:55:57.868Z,18.87
2023-04-18T06:58:25.759Z,18.13
2023-04-18T07:00:54.072Z,19.80
2023-04-18T07:03:23.388Z,17.50
2023-04-18T07:05:51.402Z,14.50
2023-04-18T07:08:19.259Z,14.77
2023-04-18T07:10:47.127Z,15.93
2023-04-18T07:13:14.963Z,13.93
2023-04-18T07:15:42.867Z,14.93
2023-04-18T07:18:11.043Z,12.83
2023-04-18T07:20:40.279Z,13.23
2023-04-18T07:23:08.087Z,18.60
2023-04-18T07:25:35.954Z,15.73
2023-04-18T07:28:03.770Z,14.43
2023-04-18T07:30:31.831Z,15.10
2023-04-18T07:32:59.715Z,16.67
2023-04-18T07:35:27.710Z,15.67
2023-04-18T07:37:56.883Z,15.43
2023-04-18T07:40:24.735Z,13.47
2023-04-18T07:42:52.616Z,16.67
2023-04-18T07:45:20.735Z,15.27
2023-04-18T07:47:48.643Z,18.73
2023-04-18T07:50:16.574Z,11.37
2023-04-18T07:52:47.582Z,10.33
2023-04-18T07:55:16.946Z,10.77
2023-04-18T07:57:50.071Z,14.83
2023-04-18T08:00:18.603Z,13.70
2023-04-18T08:02:46.902Z,12.93
2023-04-18T08:05:15.032Z,14.27
2023-04-18T08:07:43.301Z,17.83
2023-04-18T08:10:11.731Z,18.50
2023-04-18T08:12:41.012Z,16.10
2023-04-18T08:15:09.965Z,20.83
2023-04-18T08:17:38.847Z,16.13
2023-04-18T08:20:08.529Z,11.03
2023-04-18T08:22:44.015Z,16.17
2023-04-18T08:25:18.512Z,19.03
2023-04-18T08:27:47.647Z,15.73
2023-04-18T08:30:15.674Z,13.27
2023-04-18T08:32:43.598Z,17.40
2023-04-18T08:35:11.509Z,17.80
2023-04-18T08:37:39.749Z,14.67
2023-04-18T08:40:08.852Z,19.50
2023-04-18T08:42:37.340Z,15.37
2023-04-18T08:45:09.121Z,17.80
2023-04-18T08:47:37.225Z,19.97
2023-04-18T08:50:05.473Z,14.87
2023-04-18T08:52:34.450Z,13.57
2023-04-18T08:55:03.726Z,16.03
2023-04-18T08:57:33.192Z,15.50
2023-04-18T09:00:01.865Z,14.77
2023-04-18T09:02:43.194Z,17.57
2023-04-18T09:05:16.301Z,15.33
2023-04-18T09:07:44.362Z,15.60
2023-04-18T09:10:13.761Z,18.03
2023-04-18T09:12:44.588Z,11.83
2023-04-18T09:15:14.472Z,17.33
2023-04-18T09:17:46.076Z,12.53
2023-04-18T09:20:15.690Z,14.77
2023-04-18T09:22:47.188Z,15.10
2023-04-18T09:25:27.309Z,19.07
2023-04-18T09:27:56.031Z,17.67
2023-04-18T09:30:31.928Z,17.83
2023-04-18T09:33:04.433Z,15.73
2023-04-18T09:35:32.634Z,14.83
2023-04-18T09:38:00.487Z,13.93
2023-04-18T09:40:28.471Z,13.77
2023-04-18T09:42:56.514Z,13.80
2023-04-18T09:45:26.018Z,17.40
2023-04-18T09:47:55.151Z,16.03
2023-04-18T09:50:24.446Z,13.63
2023-04-18T09:52:52.259Z,15.07
2023-04-18T09:55:20.774Z,15.07
2023-04-18T09:57:50.224Z,17.30
2023-04-18T10:00:25.143Z,15.87
2023-04-18T10:02:57.759Z,14.27
2023-04-18T10:05:28.593Z,16.53
2023-04-18T10:07:56.898Z,13.07
2023-04-18T10:10:25.479Z,13.23
2023-04-18T10:12:55.813Z,14.47
2023-04-18T10:15:26.214Z,8.60
2023-04-18T10:18:04.504Z,14.07
2023-04-18T10:20:36.074Z,14.90
2023-04-18T10:23:38.388Z,19.37
2023-04-18T10:26:06.822Z,12.87
2023-04-18T10:28:54.963Z,15.97
2023-04-18T10:31:24.179Z,17.97
2023-04-18T10:34:03.822Z,15.70
2023-04-18T10:36:34.812Z,15.57
2023-04-18T10:39:20.384Z,15.10
2023-04-18T10:41:51.418Z,17.73
2023-04-18T10:44:23.959Z,16.70
2023-04-18T10:47:31.984Z,16.57
2023-04-18T10:50:06.117Z,16.00
2023-04-18T10:52:36.097Z,17.17
2023-04-18T10:55:17.406Z,17.67
2023-04-18T10:57:47.134Z,11.63
2023-04-18T11:00:17.033Z,12.67
2023-04-18T11:02:53.606Z,11.27
2023-04-18T11:05:24.291Z,11.07
2023-04-18T11:07:55.590Z,17.20
2023-04-18T11:10:25.536Z,11.30
2023-04-18T11:12:54.546Z,13.57
2023-04-18T11:15:24.038Z,12.70
2023-04-18T11:18:02.122Z,12.73
2023-04-18T11:20:30.947Z,12.77
2023-04-18T11:23:01.240Z,12.77
2023-04-18T11:25:30.681Z,14.03
2023-04-18T11:28:00.572Z,15.73
2023-04-18T11:30:31.251Z,14.40
2023-04-18T11:32:59.108Z,13.47
2023-04-18T11:35:27.348Z,13.57
2023-04-18T11:37:56.040Z,15.73
2023-04-18T11:40:25.342Z,6.67
2023-04-18T11:42:55.631Z,14.77
2023-04-18T11:45:23.707Z,16.60
2023-04-18T11:47:58.183Z,10.23
2023-04-18T11:50:27.334Z,14.27
2023-04-18T11:52:56.111Z,13.83
2023-04-18T11:55:27.173Z,11.33
2023-04-18T11:57:56.361Z,14.17
2023-04-18T12:00:33.710Z,11.87
2023-04-18T12:03:02.780Z,11.27
2023-04-18T12:05:32.765Z,9.87
2023-04-18T12:08:07.326Z,10.80
2023-04-18T12:10:36.843Z,9.33
2023-04-18T12:13:08.467Z,9.90
2023-04-18T12:15:40.298Z,8.90
2023-04-18T12:18:09.214Z,8.70
2023-04-18T12:20:38.726Z,9.60
2023-04-18T12:23:07.874Z,9.50
2023-04-18T12:25:37.585Z,8.67
2023-04-18T12:28:15.706Z,9.43
2023-04-18T12:30:43.835Z,7.13
2023-04-18T12:33:12.512Z,10.27
2023-04-18T12:35:40.425Z,15.30
2023-04-18T12:38:08.396Z,9.33
2023-04-18T12:40:40.124Z,7.37
2023-04-18T12:43:08.292Z,9.47
2023-04-18T12:45:36.083Z,9.20
2023-04-18T12:48:04.163Z,10.60
2023-04-18T12:50:32.130Z,9.40
2023-04-18T12:53:01.419Z,10.43
2023-04-18T12:55:29.845Z,9.63
2023-04-18T12:57:59.104Z,11.63
2023-04-18T13:00:28.735Z,9.10
2023-04-18T13:02:56.738Z,8.33
2023-04-18T13:05:26.859Z,9.50
2023-04-18T13:08:08.457Z,9.80
2023-04-18T13:10:41.038Z,8.20
2023-04-18T13:13:10.313Z,8.50
2023-04-18T13:15:38.268Z,10.20
2023-04-18T13:18:06.738Z,10.63
2023-04-18T13:20:35.120Z,9.17
2023-04-18T13:23:03.837Z,8.07
2023-04-18T13:25:31.892Z,7.47
2023-04-18T13:28:00.725Z,8.57
2023-04-18T13:30:30.231Z,8.23
2023-04-18T13:32:58.222Z,6.50
2023-04-18T13:35:26.100Z,8.57
2023-04-18T13:37:54.013Z,9.77
2023-04-18T13:40:21.951Z,7.13
2023-04-18T13:42:49.805Z,8.93
2023-04-18T13:45:17.602Z,9.10
2023-04-18T13:47:46.866Z,7.87
2023-04-18T13:50:14.648Z,9.17
2023-04-18T13:52:42.522Z,11.30
2023-04-18T13:55:12.338Z,10.67
2023-04-18T13:57:41.029Z,8.93
2023-04-18T14:00:12.897Z,10.17
2023-04-18T14:02:41.349Z,7.57
2023-04-18T14:05:11.220Z,10.67
2023-04-18T14:07:41.280Z,12.90
2023-04-18T14:10:10.010Z,11.33
2023-04-18T14:12:37.963Z,11.80
2023-04-18T14:15:06.868Z,9.80
2023-04-18T14:17:35.070Z,11.33
2023-04-18T14:20:03.302Z,12.30
2023-04-18T14:22:32.589Z,7.93
2023-04-18T14:25:00.385Z,10.73
2023-04-18T14:27:28.270Z,8.40
2023-04-18T14:29:56.086Z,9.90
2023-04-18T14:32:24.030Z,9.23
2023-04-18T14:34:52.451Z,10.07
2023-04-18T14:37:20.302Z,10.70
2023-04-18T14:39:49.487Z,7.87
2023-04-18T14:42:17.746Z,9.67
2023-04-18T14:44:45.966Z,11.67
2023-04-18T14:47:13.929Z,12.10
2023-04-18T14:49:41.727Z,8.20
2023-04-18T14:52:09.602Z,8.17
2023-04-18T14:54:37.570Z,9.97
2023-04-18T14:57:08.156Z,10.63
2023-04-18T14:59:36.154Z,8.73
2023-04-18T15:02:04.024Z,9.17
2023-04-18T15:04:31.978Z,6.97
2023-04-18T15:06:59.967Z,9.83
2023-04-18T15:09:28.127Z,10.27
2023-04-18T15:11:55.893Z,9.70
2023-04-18T15:14:25.134Z,9.57
2023-04-18T15:16:53.057Z,8.07
2023-04-18T15:19:20.904Z,6.53
2023-04-18T15:21:48.791Z,8.73
2023-04-18T15:24:17.023Z,10.07
2023-04-18T15:26:45.207Z,6.90
2023-04-18T15:29:13.057Z,9.03
2023-04-18T15:31:42.332Z,7.33
2023-04-18T15:34:10.223Z,10.03
2023-04-18T15:36:38.557Z,9.63
2023-04-18T15:39:06.604Z,8.87
2023-04-18T15:41:37.005Z,8.57
2023-04-18T15:44:07.211Z,10.47
2023-04-18T15:46:36.078Z,9.03
2023-04-18T15:49:05.365Z,5.70
2023-04-18T15:51:33.220Z,9.43
2023-04-18T15:54:01.235Z,8.50
2023-04-18T15:56:30.179Z,7.67
2023-04-18T15:59:02.026Z,7.13
2023-04-18T16:01:30.215Z,8.27
2023-04-18T16:03:58.269Z,7.93
2023-04-18T16:06:27.624Z,7.63
2023-04-18T16:08:55.445Z,7.83
2023-04-18T16:11:25.971Z,7.23
2023-04-18T16:13:53.875Z,7.93
2023-04-18T16:16:21.797Z,6.40
2023-04-18T16:18:49.808Z,6.67
2023-04-18T16:21:17.626Z,8.17
2023-04-18T16:23:46.882Z,11.53
2023-04-18T16:26:14.703Z,8.77
2023-04-18T16:28:42.591Z,7.33
2023-04-18T16:31:10.393Z,6.77
2023-04-18T16:33:38.420Z,6.93
2023-04-18T16:36:07.093Z,7.93
2023-04-18T16:38:34.950Z,7.67
2023-04-18T16:41:04.117Z,10.13
2023-04-18T16:43:36.252Z,8.70
2023-04-18T16:46:04.574Z,6.73
2023-04-18T16:48:32.424Z,5.63
2023-04-18T16:51:00.349Z,8.30
2023-04-18T16:53:28.142Z,8.33
2023-04-18T16:55:56.096Z,7.33
2023-04-18T16:58:25.300Z,8.17
2023-04-18T17:00:53.654Z,10.00
2023-04-18T17:03:21.574Z,8.73
2023-04-18T17:05:49.597Z,9.53
2023-04-18T17:08:17.816Z,10.40
2023-04-18T17:10:45.662Z,9.80
2023-04-18T17:13:13.469Z,9.97
2023-04-18T17:15:42.869Z,9.80
2023-04-18T17:18:10.745Z,8.80
2023-04-18T17:20:38.815Z,10.30
2023-04-18T17:23:06.639Z,7.90
2023-04-18T17:25:34.481Z,8.53
2023-04-18T17:28:03.402Z,11.60
2023-04-18T17:30:32.098Z,5.50
2023-04-18T17:33:01.260Z,10.20
2023-04-18T17:35:29.281Z,10.43
2023-04-18T17:37:57.121Z,9.77
2023-04-18T17:40:25.156Z,8.93
2023-04-18T17:42:52.953Z,11.63
2023-04-18T17:45:21.193Z,9.63
2023-04-18T17:47:49.861Z,10.53
2023-04-18T17:50:19.307Z,8.70
2023-04-18T17:52:47.221Z,12.00
2023-04-18T17:55:15.617Z,9.97
2023-04-18T17:57:43.532Z,11.73
2023-04-18T18:00:13.624Z,8.40
2023-04-18T18:02:42.709Z,9.30
2023-04-18T18:05:12.898Z,9.77
2023-04-18T18:07:43.213Z,9.87
2023-04-18T18:10:12.955Z,10.20
2023-04-18T18:12:40.936Z,9.27
2023-04-18T18:15:09.842Z,11.63
2023-04-18T18:17:37.746Z,14.00
2023-04-18T18:20:09.747Z,11.17
2023-04-18T18:22:37.973Z,9.53
2023-04-18T18:25:08.504Z,9.27
2023-04-18T18:27:36.493Z,12.13
2023-04-18T18:30:04.794Z,13.93
2023-04-18T18:32:32.747Z,12.50
2023-04-18T18:35:01.725Z,11.47
2023-04-18T18:37:29.591Z,13.63
2023-04-18T18:39:57.441Z,12.40
2023-04-18T18:42:26.874Z,11.00
2023-04-18T18:44:54.708Z,11.60
2023-04-18T18:47:22.556Z,10.13
2023-04-18T18:49:50.421Z,15.50
2023-04-18T18:52:18.565Z,10.60
2023-04-18T18:54:46.508Z,11.90
2023-04-18T18:57:14.411Z,11.90
2023-04-18T18:59:43.589Z,14.97
2023-04-18T19:02:11.506Z,11.70
2023-04-18T19:04:39.565Z,12.13
2023-04-18T19:07:07.612Z,11.60
2023-04-18T19:09:36.713Z,14.33
2023-04-18T19:12:05.582Z,12.70
2023-04-18T19:14:33.460Z,12.03
2023-04-18T19:17:03.213Z,13.53
2023-04-18T19:19:31.248Z,12.73
2023-04-18T19:22:00.955Z,11.40
2023-04-18T19:24:28.798Z,12.47
2023-04-18T19:26:56.774Z,11.27
2023-04-18T19:29:24.835Z,16.10
2023-04-18T19:31:52.684Z,11.80
2023-04-18T19:34:22.196Z,13.47
2023-04-18T19:36:50.240Z,12.10
2023-04-18T19:39:18.102Z,13.33
2023-04-18T19:41:46.774Z,16.37
2023-04-18T19:44:14.553Z,15.20
2023-04-18T19:46:42.374Z,14.63
2023-04-18T19:49:10.190Z,16.37
2023-04-18T19:51:40.282Z,15.07
2023-04-18T19:54:08.277Z,13.50
2023-04-18T19:56:36.084Z,16.83
2023-04-18T19:59:05.785Z,15.93
2023-04-18T20:01:33.683Z,20.13
2023-04-18T20:04:02.007Z,16.67
2023-04-18T20:06:30.848Z,17.63
2023-04-18T20:09:00.228Z,16.83
2023-04-18T20:11:28.116Z,14.23
2023-04-18T20:13:56.525Z,15.17
2023-04-18T20:16:24.544Z,14.73
2023-04-18T20:18:54.857Z,13.67
2023-04-18T20:21:23.025Z,17.20
2023-04-18T20:23:51.001Z,15.23
2023-04-18T20:26:20.293Z,17.03
2023-04-18T20:28:48.140Z,14.03
2023-04-18T20:31:16.022Z,13.97
2023-04-18T20:33:43.903Z,12.47
2023-04-18T20:36:11.746Z,14.80
2023-04-18T20:38:40.094Z,13.23
2023-04-18T20:41:10.679Z,13.97
2023-04-18T20:43:41.015Z,13.80
2023-04-18T20:46:12.686Z,13.33
2023-04-18T20:48:40.681Z,13.90
2023-04-18T20:51:08.492Z,15.17
2023-04-18T20:53:36.395Z,10.90
2023-04-18T20:56:04.188Z,12.33
2023-04-18T20:58:32.053Z,13.43
2023-04-18T21:01:01.294Z,15.57
2023-04-18T21:03:29.749Z,14.00
2023-04-18T21:05:57.711Z,14.03
2023-04-18T21:08:25.728Z,12.70
2023-04-18T21:10:53.872Z,15.63
2023-04-18T21:13:21.901Z,16.37
2023-04-18T21:15:51.802Z,12.67
2023-04-18T21:18:21.013Z,12.20
2023-04-18T21:20:48.922Z,14.93
2023-04-18T21:23:16.868Z,14.70
2023-04-18T21:25:44.768Z,13.13
2023-04-18T21:28:12.894Z,12.43
2023-04-18T21:30:40.894Z,14.03
2023-04-18T21:33:08.744Z,14.63
2023-04-18T21:35:37.922Z,13.57
2023-04-18T21:38:05.923Z,14.33
2023-04-18T21:40:33.806Z,13.53
2023-04-18T21:43:01.641Z,14.50
2023-04-18T21:45:29.524Z,12.43
2023-04-18T21:47:57.417Z,12.70
2023-04-18T21:50:25.643Z,14.30
2023-04-18T21:52:54.782Z,16.13
2023-04-18T21:55:22.816Z,13.93
2023-04-18T21:57:50.590Z,14.13
2023-04-18T22:00:19.432Z,15.17
2023-04-18T22:02:47.568Z,14.20
2023-04-18T22:05:16.070Z,13.57
2023-04-18T22:07:56.955Z,20.20
2023-04-18T22:10:27.222Z,12.33
2023-04-18T22:12:55.714Z,15.27
2023-04-18T22:15:23.640Z,15.33
2023-04-18T22:17:51.518Z,17.53
2023-04-18T22:20:19.722Z,14.73
2023-04-18T22:22:47.570Z,15.23
2023-04-18T22:25:15.490Z,16.53
2023-04-18T22:27:46.306Z,16.73
2023-04-18T22:30:16.070Z,15.50
2023-04-18T22:32:43.963Z,15.03
2023-04-18T22:35:11.783Z,13.67
2023-04-18T22:37:39.655Z,13.77
2023-04-18T22:40:08.894Z,15.03
2023-04-18T22:42:38.616Z,11.67
2023-04-18T22:45:09.058Z,10.60
2023-04-18T22:47:36.977Z,11.33
2023-04-18T22:50:05.341Z,20.17
2023-04-18T22:52:33.187Z,17.80
2023-04-18T22:55:02.683Z,16.27
2023-04-18T22:57:30.792Z,11.67
2023-04-18T22:59:58.614Z,13.23
2023-04-18T23:02:28.162Z,13.10
2023-04-18T23:04:58.236Z,15.80
2023-04-18T23:07:26.087Z,16.13
2023-04-18T23:09:53.894Z,15.73
2023-04-18T23:12:21.951Z,10.80
2023-04-18T23:14:49.890Z,12.80
2023-04-18T23:17:17.772Z,14.07
2023-04-18T23:19:46.919Z,12.63
2023-04-18T23:22:14.768Z,12.23
2023-04-18T23:24:42.592Z,14.63
2023-04-18T23:27:10.469Z,14.70
2023-04-18T23:29:39.504Z,15.23
2023-04-18T23:32:07.410Z,16.33
2023-04-18T23:34:35.294Z,13.10
2023-04-18T23:37:04.595Z,14.37
2023-04-18T23:39:32.454Z,14.63
2023-04-18T23:42:01.136Z,12.10
2023-04-18T23:44:28.915Z,14.60
2023-04-18T23:46:56.849Z,13.93
2023-04-18T23:49:24.644Z,11.30
2023-04-18T23:51:52.537Z,12.43
2023-04-18T23:54:21.737Z,15.03
2023-04-18T23:56:49.644Z,11.83
2023-04-18T23:59:17.446Z,10.93
